Time;durP1;ratioP1;P1;durP2;ratioP2;P2;SDS_P1;SDS_P2;PMS_P1;PMS_P2;Temp;Humidity;BMP_temperature;BMP_pressure;BME280_temperature;BME280_humidity;BME280_pressure;Samples;Min_cycle;Max_cycle;Signal;HPM_P1;HPM_P2
2022/05/25 00:02:06;;;;;;;9.35;5.05;;;12.80;99.90;;;;;;5051269;28;20228;-73
2022/05/25 00:04:33;;;;;;;6.53;5.93;;;12.80;99.90;;;;;;5044691;28;20229;-73
2022/05/25 00:07:01;;;;;;;4.78;4.38;;;12.90;99.90;;;;;;5051679;28;20710;-72
2022/05/25 00:09:28;;;;;;;6.85;5.28;;;13.00;99.90;;;;;;5051399;28;20311;-72
2022/05/25 00:11:56;;;;;;;5.30;4.80;;;13.00;99.90;;;;;;5052857;28;20290;-73
2022/05/25 00:14:24;;;;;;;5.90;5.30;;;13.10;99.90;;;;;;5043961;28;20201;-73
2022/05/25 00:16:50;;;;;;;4.68;4.28;;;13.10;99.90;;;;;;5059362;28;20212;-73
2022/05/25 00:22:02;;;;;;;6.60;5.28;;;13.10;99.90;;;;;;5045459;28;20205;-73
2022/05/25 00:24:29;;;;;;;6.70;5.03;;;13.20;99.90;;;;;;5053023;28;20206;-73
2022/05/25 00:26:57;;;;;;;6.05;5.35;;;13.20;99.90;;;;;;5053182;28;20202;-74
2022/05/25 00:29:24;;;;;;;5.65;5.05;;;13.20;99.90;;;;;;5044688;28;20217;-73
2022/05/25 00:31:51;;;;;;;5.75;4.60;;;13.20;99.90;;;;;;5052687;28;20222;-72
2022/05/25 00:34:18;;;;;;;4.82;4.40;;;13.30;99.90;;;;;;5052079;28;20251;-73
2022/05/25 00:36:45;;;;;;;5.65;5.15;;;13.20;99.90;;;;;;5040565;28;20221;-74
2022/05/25 00:39:12;;;;;;;5.70;4.10;;;13.20;99.90;;;;;;5052404;28;20294;-74
2022/05/25 00:41:39;;;;;;;6.05;5.45;;;13.20;99.90;;;;;;5054776;28;20278;-74
2022/05/25 00:44:09;;;;;;;4.13;3.75;;;13.30;99.90;;;;;;5061575;28;20200;-74
2022/05/25 00:46:38;;;;;;;5.05;4.53;;;13.30;99.90;;;;;;5057488;28;20231;-74
2022/05/25 00:49:07;;;;;;;5.45;4.38;;;13.30;99.90;;;;;;5059585;28;20302;-73
2022/05/25 00:51:39;;;;;;;5.40;4.35;;;13.40;99.90;;;;;;5055904;28;20276;-73
2022/05/25 00:54:10;;;;;;;5.78;4.45;;;13.40;99.90;;;;;;5049114;28;20252;-74
2022/05/25 00:56:40;;;;;;;5.50;4.18;;;13.40;99.90;;;;;;5053680;28;20758;-74
2022/05/25 00:59:13;;;;;;;4.78;4.10;;;13.40;99.90;;;;;;5045975;28;20214;-74
2022/05/25 01:01:41;;;;;;;3.90;3.60;;;13.40;99.90;;;;;;5056013;28;20208;-73
2022/05/25 01:04:08;;;;;;;4.35;3.58;;;13.40;99.90;;;;;;5058878;28;20714;-73
2022/05/25 01:06:54;;;;;;;3.50;3.20;;;13.30;99.90;;;;;;5059686;28;20306;-74
2022/05/25 01:09:41;;;;;;;3.67;3.38;;;13.30;99.90;;;;;;5072265;28;20587;-73
2022/05/25 01:12:24;;;;;;;4.45;3.30;;;13.20;99.90;;;;;;5067364;28;20198;-72
2022/05/25 01:15:09;;;;;;;3.70;3.40;;;13.30;99.90;;;;;;5059626;28;20291;-73
2022/05/25 01:17:48;;;;;;;5.50;3.25;;;13.20;99.90;;;;;;5052020;28;20590;-73
2022/05/25 01:20:23;;;;;;;3.83;3.42;;;13.10;99.90;;;;;;5047329;28;20198;-73
2022/05/25 01:23:29;;;;;;;4.47;4.07;;;13.00;99.90;;;;;;5049335;28;20263;-73
2022/05/25 01:26:20;;;;;;;4.50;4.05;;;13.00;99.90;;;;;;5042808;28;20556;-72
2022/05/25 01:29:08;;;;;;;4.35;3.92;;;12.90;99.90;;;;;;5042135;28;20733;-73
2022/05/25 01:31:44;;;;;;;5.20;4.70;;;12.80;99.90;;;;;;5050826;28;20653;-73
2022/05/25 01:34:19;;;;;;;5.45;4.95;;;12.70;99.90;;;;;;5058926;28;20600;-73
2022/05/25 01:36:57;;;;;;;5.15;4.65;;;12.70;99.90;;;;;;5052748;28;20290;-73
2022/05/25 01:39:28;;;;;;;5.30;4.80;;;12.70;99.90;;;;;;5053389;28;20201;-73
2022/05/25 01:41:58;;;;;;;7.00;5.93;;;12.70;99.90;;;;;;5050052;28;20207;-73
2022/05/25 01:44:28;;;;;;;7.65;6.85;;;12.60;99.90;;;;;;5054916;28;20253;-73
2022/05/25 01:47:04;;;;;;;7.07;6.18;;;12.60;99.90;;;;;;5055030;28;20629;-73
2022/05/25 01:49:47;;;;;;;6.82;6.10;;;12.60;99.90;;;;;;5052689;28;20679;-73
2022/05/25 01:52:19;;;;;;;6.55;5.72;;;12.70;99.90;;;;;;5054652;28;20649;-73
2022/05/25 01:54:51;;;;;;;5.43;4.93;;;12.50;99.90;;;;;;5050122;28;20257;-73
2022/05/25 01:57:22;;;;;;;7.00;6.40;;;12.50;99.90;;;;;;5054828;28;20221;-73
2022/05/25 01:59:49;;;;;;;8.32;7.63;;;12.50;99.90;;;;;;5049820;28;20305;-73
2022/05/25 02:05:07;;;;;;;8.65;7.68;;;12.40;99.90;;;;;;5046822;28;20227;-73
2022/05/25 02:07:45;;;;;;;8.50;7.70;;;12.30;99.90;;;;;;5050307;28;20212;-73
2022/05/25 02:10:27;;;;;;;10.23;9.30;;;12.30;99.90;;;;;;5051940;28;20213;-73
2022/05/25 02:13:24;;;;;;;10.05;8.77;;;12.30;99.90;;;;;;5050191;28;20648;-73
2022/05/25 02:16:01;;;;;;;11.07;9.82;;;12.20;99.90;;;;;;5047680;28;20256;-73
2022/05/25 02:18:38;;;;;;;11.10;10.00;;;12.20;99.90;;;;;;5059110;28;20223;-73
2022/05/25 02:21:10;;;;;;;9.23;8.30;;;12.20;99.90;;;;;;5048505;28;20294;-73
2022/05/25 02:23:44;;;;;;;11.02;9.93;;;12.20;99.90;;;;;;5056579;28;20717;-72
2022/05/25 02:26:16;;;;;;;10.70;9.65;;;12.20;99.90;;;;;;5051710;28;20730;-73
2022/05/25 02:28:47;;;;;;;11.20;10.05;;;12.10;99.90;;;;;;5048664;28;20564;-72
2022/05/25 02:31:18;;;;;;;12.32;11.18;;;12.10;99.90;;;;;;5053399;28;20612;-73
2022/05/25 02:33:50;;;;;;;11.35;10.35;;;12.10;99.90;;;;;;5053395;28;20208;-73
2022/05/25 02:36:19;;;;;;;12.80;11.63;;;12.10;99.90;;;;;;5053948;28;20239;-73
2022/05/25 02:38:46;;;;;;;12.35;10.30;;;12.10;99.90;;;;;;5053600;28;20199;-73
2022/05/25 02:41:25;;;;;;;12.18;11.07;;;12.00;99.90;;;;;;5047479;28;20210;-73
2022/05/25 02:43:52;;;;;;;12.52;11.23;;;12.00;99.90;;;;;;5053813;28;20211;-73
2022/05/25 02:46:20;;;;;;;16.63;13.93;;;11.90;99.90;;;;;;5046933;28;20306;-73
2022/05/25 02:48:49;;;;;;;13.90;12.52;;;11.90;99.90;;;;;;5053777;28;20674;-73
2022/05/25 02:51:17;;;;;;;14.20;12.75;;;11.80;99.90;;;;;;5053352;28;20241;-73
2022/05/25 02:53:46;;;;;;;14.55;12.90;;;11.80;99.90;;;;;;5053546;28;20278;-73
2022/05/25 02:56:12;;;;;;;15.05;13.52;;;11.70;99.90;;;;;;5054058;28;20260;-73
2022/05/25 02:58:40;;;;;;;15.23;13.73;;;11.70;99.90;;;;;;5054244;28;20192;-75
2022/05/25 03:01:08;;;;;;;15.15;13.65;;;11.70;99.90;;;;;;5053164;28;20204;-73
2022/05/25 03:03:35;;;;;;;16.55;14.82;;;11.70;99.90;;;;;;5047564;28;20200;-73
2022/05/25 03:06:04;;;;;;;16.88;14.57;;;11.70;99.90;;;;;;5053467;28;20287;-72
2022/05/25 03:08:31;;;;;;;18.20;16.40;;;11.70;99.90;;;;;;5048068;28;20203;-73
2022/05/25 03:10:58;;;;;;;17.88;16.10;;;11.60;99.90;;;;;;5047060;28;20224;-73
2022/05/25 03:13:25;;;;;;;18.45;14.25;;;11.60;99.90;;;;;;5053799;28;20245;-72
2022/05/25 03:15:52;;;;;;;17.92;16.02;;;11.60;99.90;;;;;;5054690;28;20738;-73
2022/05/25 03:18:19;;;;;;;17.35;15.30;;;11.60;99.90;;;;;;5057938;28;20339;-73
2022/05/25 03:20:47;;;;;;;17.15;14.55;;;11.50;99.90;;;;;;5052778;28;20224;-73
2022/05/25 03:23:17;;;;;;;16.98;13.82;;;11.60;99.90;;;;;;5049046;28;20203;-73
2022/05/25 03:25:44;;;;;;;15.18;13.50;;;11.70;99.90;;;;;;5053178;28;20266;-73
2022/05/25 03:28:11;;;;;;;19.27;16.75;;;11.50;99.90;;;;;;5053242;28;20203;-73
2022/05/25 03:30:38;;;;;;;16.05;14.50;;;11.50;99.90;;;;;;5052378;28;20225;-73
2022/05/25 03:33:05;;;;;;;17.42;15.73;;;11.50;99.90;;;;;;5053104;28;20261;-73
2022/05/25 03:35:32;;;;;;;16.20;14.50;;;11.50;99.90;;;;;;5050643;28;20302;-73
2022/05/25 03:38:01;;;;;;;18.45;16.55;;;11.40;99.90;;;;;;5052463;28;20239;-73
2022/05/25 03:40:30;;;;;;;15.95;14.32;;;11.40;99.90;;;;;;5049435;28;20196;-73
2022/05/25 03:42:57;;;;;;;20.10;17.40;;;11.40;99.90;;;;;;5049690;28;20191;-73
2022/05/25 03:45:25;;;;;;;18.27;16.05;;;11.40;99.90;;;;;;5049832;28;20259;-72
2022/05/25 03:47:53;;;;;;;16.65;14.70;;;11.40;99.90;;;;;;5050629;28;20287;-72
2022/05/25 03:50:20;;;;;;;19.60;17.50;;;11.40;99.90;;;;;;5052636;28;20226;-73
2022/05/25 03:52:48;;;;;;;20.25;15.27;;;11.40;99.90;;;;;;5047480;28;20668;-73
2022/05/25 03:55:15;;;;;;;19.38;17.45;;;11.40;99.90;;;;;;5053591;28;20356;-73
2022/05/25 03:57:43;;;;;;;19.05;17.25;;;11.40;99.90;;;;;;5057406;28;20227;-73
2022/05/25 04:00:11;;;;;;;16.60;14.93;;;11.50;99.90;;;;;;5058996;28;20279;-73
2022/05/25 04:02:38;;;;;;;18.75;16.95;;;11.50;99.90;;;;;;5055197;28;20730;-74
2022/05/25 04:05:08;;;;;;;16.63;14.93;;;11.60;99.90;;;;;;5062249;28;20311;-73
2022/05/25 04:07:36;;;;;;;16.27;14.77;;;11.60;99.90;;;;;;5063895;28;20255;-73
2022/05/25 04:10:17;;;;;;;17.70;14.68;;;11.70;99.90;;;;;;5055503;28;20213;-73
2022/05/25 04:12:46;;;;;;;18.42;16.10;;;11.80;99.90;;;;;;5050619;28;20284;-74
2022/05/25 04:15:16;;;;;;;14.95;13.35;;;11.90;99.90;;;;;;5050826;28;20244;-73
2022/05/25 04:17:43;;;;;;;16.02;13.88;;;12.10;99.90;;;;;;5058985;28;20198;-73
2022/05/25 04:20:12;;;;;;;12.68;11.43;;;12.70;99.90;;;;;;5057656;28;20237;-73
2022/05/25 04:22:40;;;;;;;13.50;12.18;;;13.40;99.90;;;;;;5051900;28;20226;-73
2022/05/25 04:25:11;;;;;;;13.75;12.32;;;14.20;99.90;;;;;;5054193;28;20237;-72
2022/05/25 04:27:39;;;;;;;11.60;10.50;;;14.90;99.90;;;;;;5053878;28;20211;-72
2022/05/25 04:30:11;;;;;;;14.75;11.13;;;15.60;99.90;;;;;;5055392;28;20336;-72
2022/05/25 04:32:38;;;;;;;12.80;11.48;;;16.00;99.90;;;;;;5047966;28;20213;-73
2022/05/25 04:35:07;;;;;;;11.23;10.23;;;16.60;99.90;;;;;;5055762;28;20247;-73
2022/05/25 04:40:21;;;;;;;11.23;9.27;;;17.40;99.90;;;;;;5055509;28;20926;-73
2022/05/25 04:42:48;;;;;;;11.70;10.60;;;17.90;99.90;;;;;;5055127;28;20545;-74
2022/05/25 04:45:17;;;;;;;11.90;10.77;;;18.30;99.90;;;;;;5055711;28;20827;-73
2022/05/25 04:47:45;;;;;;;12.20;10.50;;;18.60;99.90;;;;;;5052119;28;20786;-75
2022/05/25 04:50:14;;;;;;;10.07;9.07;;;18.90;99.90;;;;;;5044182;28;20493;-73
2022/05/25 04:52:41;;;;;;;11.50;10.47;;;19.10;99.90;;;;;;5054825;28;20446;-74
2022/05/25 04:55:09;;;;;;;16.90;9.00;;;19.30;99.90;;;;;;5055696;28;20545;-73
2022/05/25 04:57:35;;;;;;;10.97;9.97;;;19.50;99.90;;;;;;5053323;28;20457;-74
2022/05/25 05:00:07;;;;;;;8.77;7.97;;;19.70;99.90;;;;;;5049408;28;20434;-74
2022/05/25 05:02:35;;;;;;;9.77;8.80;;;20.10;99.90;;;;;;5049021;28;20531;-74
2022/05/25 05:05:03;;;;;;;8.97;8.27;;;20.70;99.00;;;;;;5047228;28;20477;-74
2022/05/25 05:07:30;;;;;;;9.10;8.30;;;21.00;97.50;;;;;;5055708;28;20442;-74
2022/05/25 05:09:57;;;;;;;9.33;8.53;;;20.50;98.00;;;;;;5054769;28;20484;-73
2022/05/25 05:12:24;;;;;;;9.27;8.47;;;20.70;97.50;;;;;;5048261;28;20956;-72
2022/05/25 05:14:51;;;;;;;12.63;8.57;;;21.00;96.20;;;;;;5050280;28;20987;-72
2022/05/25 05:17:18;;;;;;;10.63;7.90;;;21.20;96.40;;;;;;5055677;28;20537;-72
2022/05/25 05:19:47;;;;;;;9.13;8.33;;;21.90;95.20;;;;;;5055694;28;20503;-73
2022/05/25 05:22:14;;;;;;;9.50;8.60;;;22.00;94.20;;;;;;5043494;28;20982;-73
2022/05/25 05:24:41;;;;;;;14.73;9.20;;;21.80;94.20;;;;;;5049440;28;20957;-74
2022/05/25 05:27:09;;;;;;;11.77;8.10;;;22.20;93.50;;;;;;5062705;28;20449;-74
2022/05/25 05:29:36;;;;;;;9.20;8.33;;;22.80;93.10;;;;;;5053434;28;20469;-73
2022/05/25 05:32:03;;;;;;;9.23;7.87;;;23.20;91.80;;;;;;5054162;28;20518;-73
2022/05/25 05:34:30;;;;;;;10.10;9.07;;;23.20;92.00;;;;;;5051232;28;20438;-76
2022/05/25 05:37:03;;;;;;;8.77;8.07;;;22.90;91.10;;;;;;5055109;28;20541;-74
2022/05/25 05:39:35;;;;;;;13.03;9.90;;;23.30;91.90;;;;;;5051846;28;20461;-74
2022/05/25 05:42:05;;;;;;;8.27;7.60;;;23.60;90.90;;;;;;5054967;28;20501;-74
2022/05/25 05:44:37;;;;;;;10.50;8.43;;;23.90;90.20;;;;;;5054436;28;20541;-74
2022/05/25 05:47:07;;;;;;;11.07;8.20;;;24.00;88.30;;;;;;5054508;28;20539;-74
2022/05/25 05:49:36;;;;;;;10.57;9.53;;;24.30;90.00;;;;;;5052952;28;20559;-74
2022/05/25 05:52:05;;;;;;;9.80;8.80;;;24.80;86.80;;;;;;5054684;28;21039;-75
2022/05/25 05:54:32;;;;;;;10.73;9.23;;;25.20;85.70;;;;;;5055106;28;20550;-75
2022/05/25 05:57:00;;;;;;;10.20;9.27;;;25.50;84.90;;;;;;5054082;28;20496;-75
2022/05/25 05:59:27;;;;;;;12.63;8.70;;;25.40;83.20;;;;;;5054415;28;20915;-72
2022/05/25 06:01:54;;;;;;;10.83;8.40;;;24.80;84.30;;;;;;5051909;28;20526;-73
2022/05/25 06:04:22;;;;;;;10.17;9.17;;;24.10;86.00;;;;;;5042615;28;20925;-74
2022/05/25 06:06:49;;;;;;;12.90;9.33;;;23.40;87.90;;;;;;5050236;28;20461;-74
2022/05/25 06:09:18;;;;;;;9.90;8.97;;;23.20;90.10;;;;;;5051943;28;20458;-73
2022/05/25 06:11:45;;;;;;;10.47;9.47;;;24.10;89.00;;;;;;5047352;28;20916;-74
2022/05/25 06:14:12;;;;;;;11.10;10.00;;;24.70;86.80;;;;;;5054827;28;21015;-75
2022/05/25 06:19:27;;;;;;;9.43;8.40;;;25.60;84.00;;;;;;5047494;28;20440;-74
2022/05/25 06:21:59;;;;;;;10.47;9.57;;;25.60;83.30;;;;;;5054501;28;20438;-75
2022/05/25 06:24:29;;;;;;;11.10;10.10;;;26.10;81.30;;;;;;5051213;28;20442;-75
2022/05/25 06:26:57;;;;;;;8.50;7.80;;;26.10;80.00;;;;;;5052809;28;20533;-74
2022/05/25 06:29:24;;;;;;;11.13;10.03;;;26.50;80.10;;;;;;5043972;28;20861;-74
2022/05/25 06:31:51;;;;;;;8.80;7.90;;;26.40;79.20;;;;;;5042145;28;21028;-74
2022/05/25 06:34:18;;;;;;;9.50;8.60;;;26.10;78.20;;;;;;5042990;28;20541;-75
2022/05/25 06:36:48;;;;;;;10.40;8.83;;;25.30;79.50;;;;;;5053579;28;20485;-74
2022/05/25 06:39:15;;;;;;;9.90;8.90;;;24.40;80.70;;;;;;5061587;28;20533;-74
2022/05/25 06:41:44;;;;;;;9.30;8.50;;;24.40;82.30;;;;;;5053407;28;20488;-75
2022/05/25 06:44:10;;;;;;;9.93;8.73;;;23.60;83.50;;;;;;5054953;28;20521;-76
2022/05/25 06:46:37;;;;;;;10.37;9.47;;;24.20;84.80;;;;;;5053073;28;20478;-76
2022/05/25 06:49:04;;;;;;;9.73;8.83;;;24.90;82.90;;;;;;5059667;28;20489;-75
2022/05/25 06:51:34;;;;;;;12.60;10.10;;;25.00;80.50;;;;;;5062722;28;20496;-77
2022/05/25 06:54:02;;;;;;;8.20;7.40;;;24.90;81.30;;;;;;5063801;28;20994;-75
2022/05/25 06:56:40;;;;;;;8.13;7.33;;;24.80;81.60;;;;;;5059519;28;20532;-77
2022/05/25 06:59:08;;;;;;;7.90;7.10;;;24.50;81.50;;;;;;5072296;28;20537;-76
2022/05/25 07:01:37;;;;;;;10.07;6.57;;;24.40;82.50;;;;;;5055405;28;20437;-77
2022/05/25 07:04:05;;;;;;;7.60;5.97;;;24.90;81.90;;;;;;5050911;28;20541;-76
2022/05/25 07:06:35;;;;;;;8.23;7.43;;;25.20;80.20;;;;;;5046926;28;20465;-73
2022/05/25 07:09:01;;;;;;;8.17;7.47;;;25.10;79.40;;;;;;5052544;28;20498;-75
2022/05/25 07:11:28;;;;;;;6.90;6.30;;;25.60;80.20;;;;;;5056488;28;20473;-76
2022/05/25 07:13:55;;;;;;;8.33;7.50;;;26.40;78.50;;;;;;5051369;28;20879;-76
2022/05/25 07:16:24;;;;;;;8.17;7.23;;;26.90;76.70;;;;;;5048402;28;20545;-76
2022/05/25 07:18:50;;;;;;;11.13;8.70;;;27.20;76.30;;;;;;5053968;28;20442;-75
2022/05/25 07:21:19;;;;;;;7.80;7.10;;;26.70;75.50;;;;;;5051983;28;20533;-74
2022/05/25 07:23:49;;;;;;;10.53;8.00;;;26.40;74.40;;;;;;5062003;28;21031;-74
2022/05/25 07:26:17;;;;;;;8.57;7.77;;;25.80;75.20;;;;;;5054775;28;20849;-76
2022/05/25 07:28:44;;;;;;;8.90;8.10;;;25.90;75.80;;;;;;5048754;28;20527;-75
2022/05/25 07:31:18;;;;;;;8.23;7.53;;;25.60;76.70;;;;;;5058035;28;20478;-73
2022/05/25 07:33:51;;;;;;;8.33;7.53;;;25.40;76.90;;;;;;5047213;28;20933;-75
2022/05/25 07:36:18;;;;;;;8.27;7.57;;;25.30;77.80;;;;;;5052605;28;20478;-74
2022/05/25 07:38:48;;;;;;;9.53;7.30;;;25.60;78.50;;;;;;5051883;28;20545;-74
2022/05/25 07:41:17;;;;;;;6.80;6.20;;;26.20;76.80;;;;;;5047080;28;20466;-75
2022/05/25 07:43:45;;;;;;;8.63;7.83;;;26.50;75.60;;;;;;5051653;28;20541;-73
2022/05/25 07:46:12;;;;;;;7.30;6.60;;;26.60;74.20;;;;;;5044646;28;20534;-75
2022/05/25 07:48:39;;;;;;;7.00;6.30;;;26.30;75.80;;;;;;5066825;28;20468;-74
2022/05/25 07:51:07;;;;;;;8.13;6.00;;;26.70;76.20;;;;;;5052548;28;20470;-75
2022/05/25 07:56:20;;;;;;;6.43;5.00;;;26.10;71.80;;;;;;5057311;28;20548;-74
2022/05/25 07:58:47;;;;;;;6.40;5.20;;;25.70;73.00;;;;;;5056822;28;20492;-74
2022/05/25 08:01:20;;;;;;;5.20;4.70;;;26.30;72.90;;;;;;5048219;28;20443;-76
2022/05/25 08:06:38;;;;;;;6.43;5.83;;;26.60;70.00;;;;;;5060820;28;20460;-72
2022/05/25 08:09:17;;;;;;;5.03;4.57;;;26.60;70.80;;;;;;5058275;28;20504;-75
2022/05/25 08:11:59;;;;;;;4.97;4.47;;;26.80;71.70;;;;;;5045255;28;20506;-72
2022/05/25 08:14:27;;;;;;;4.73;3.87;;;27.30;69.70;;;;;;5050796;28;20435;-74
2022/05/25 08:16:56;;;;;;;4.60;3.90;;;26.70;68.00;;;;;;5047592;28;20533;-74
2022/05/25 08:19:23;;;;;;;4.17;3.87;;;26.00;69.40;;;;;;5057333;28;20461;-75
2022/05/25 08:21:53;;;;;;;7.83;2.77;;;25.20;69.60;;;;;;5057022;28;20917;-75
2022/05/25 08:24:20;;;;;;;4.40;3.57;;;24.70;72.20;;;;;;5071474;28;20504;-75
2022/05/25 08:26:49;;;;;;;7.13;4.30;;;24.30;72.00;;;;;;5057649;28;20478;-76
2022/05/25 08:29:32;;;;;;;3.93;3.53;;;23.70;74.80;;;;;;5055167;28;20506;-75
2022/05/25 08:31:58;;;;;;;3.87;3.37;;;23.70;76.80;;;;;;5059512;28;20466;-73
2022/05/25 08:34:29;;;;;;;3.80;3.40;;;25.10;75.10;;;;;;5058022;28;20446;-73
2022/05/25 08:37:06;;;;;;;3.30;2.97;;;25.30;72.00;;;;;;5056861;28;20503;-76
2022/05/25 08:39:39;;;;;;;4.87;3.43;;;25.60;71.20;;;;;;5052593;28;20458;-75
2022/05/25 08:42:13;;;;;;;4.97;4.20;;;26.30;70.00;;;;;;5056598;28;20448;-73
2022/05/25 08:44:46;;;;;;;3.40;3.10;;;25.80;69.70;;;;;;5050886;28;20531;-75
2022/05/25 08:47:14;;;;;;;3.30;2.73;;;26.30;70.70;;;;;;5048228;28;20442;-76
2022/05/25 08:49:46;;;;;;;4.23;3.70;;;27.20;68.90;;;;;;5057252;28;20528;-77
2022/05/25 08:52:23;;;;;;;4.50;3.60;;;27.70;66.80;;;;;;5055496;28;20528;-76
2022/05/25 08:55:01;;;;;;;3.40;3.10;;;28.30;66.00;;;;;;5053879;28;20454;-77
2022/05/25 08:57:34;;;;;;;4.37;3.97;;;28.10;65.80;;;;;;5057760;28;20494;-76
2022/05/25 09:00:17;;;;;;;5.43;4.07;;;27.10;66.40;;;;;;5061472;28;20438;-76
2022/05/25 09:03:00;;;;;;;3.63;3.33;;;26.90;67.30;;;;;;5051176;28;20438;-76
2022/05/25 09:05:34;;;;;;;4.83;2.87;;;26.40;67.90;;;;;;5055840;28;20560;-75
2022/05/25 09:08:14;;;;;;;5.10;2.83;;;25.80;68.30;;;;;;5055326;28;20912;-74
2022/05/25 09:10:47;;;;;;;2.70;2.33;;;24.90;69.80;;;;;;5055787;28;20457;-75
2022/05/25 09:13:19;;;;;;;6.10;4.40;;;24.10;70.60;;;;;;5056636;28;20525;-77
2022/05/25 09:18:40;;;;;;;4.43;2.20;;;24.80;71.20;;;;;;5055061;28;20860;-75
2022/05/25 09:21:08;;;;;;;3.13;2.60;;;25.70;70.30;;;;;;5065594;28;20437;-75
2022/05/25 09:23:38;;;;;;;4.87;2.40;;;26.00;66.50;;;;;;5059880;28;20469;-74
2022/05/25 09:26:05;;;;;;;4.03;2.20;;;26.70;65.60;;;;;;5046914;28;20502;-76
2022/05/25 09:28:35;;;;;;;3.40;2.67;;;27.10;64.90;;;;;;5052334;28;20446;-76
2022/05/25 09:31:04;;;;;;;2.53;2.33;;;26.80;64.80;;;;;;5061848;28;20502;-76
2022/05/25 09:33:36;;;;;;;3.40;1.90;;;25.30;66.50;;;;;;5066702;28;20521;-75
2022/05/25 09:36:11;;;;;;;4.43;2.10;;;24.20;69.00;;;;;;5062117;28;20576;-75
2022/05/25 09:38:45;;;;;;;3.73;2.00;;;24.10;69.40;;;;;;5073822;28;20455;-74
2022/05/25 09:41:14;;;;;;;3.23;2.10;;;24.00;69.50;;;;;;5057525;28;20484;-74
2022/05/25 09:43:43;;;;;;;2.20;2.00;;;24.40;69.60;;;;;;5047446;28;20533;-75
2022/05/25 09:46:16;;;;;;;2.30;1.73;;;25.00;69.70;;;;;;5046353;28;21024;-74
2022/05/25 09:48:50;;;;;;;2.73;1.80;;;25.20;69.30;;;;;;5060136;28;20553;-75
2022/05/25 09:51:25;;;;;;;2.30;1.90;;;24.90;68.90;;;;;;5049472;28;20513;-75
2022/05/25 09:54:00;;;;;;;1.60;1.30;;;25.30;68.00;;;;;;5048752;28;20441;-74
2022/05/25 09:56:31;;;;;;;4.13;1.80;;;25.30;68.00;;;;;;5048629;28;20470;-74
2022/05/25 09:59:06;;;;;;;2.33;1.40;;;25.30;66.90;;;;;;5055764;28;20514;-75
2022/05/25 10:01:43;;;;;;;1.87;1.30;;;25.40;67.70;;;;;;5054731;28;20488;-77
2022/05/25 10:04:14;;;;;;;4.10;2.20;;;25.20;66.40;;;;;;5047767;28;20450;-75
2022/05/25 10:06:50;;;;;;;1.60;1.30;;;25.50;66.70;;;;;;5043529;28;20765;-75
2022/05/25 10:09:25;;;;;;;3.30;2.10;;;25.20;67.10;;;;;;5059877;28;20455;-74
2022/05/25 10:11:55;;;;;;;3.30;1.70;;;25.00;67.10;;;;;;5062197;28;20569;-75
2022/05/25 10:14:28;;;;;;;7.00;1.40;;;24.00;67.90;;;;;;5047138;28;20521;-73
2022/05/25 10:16:57;;;;;;;2.03;1.63;;;23.30;70.30;;;;;;5039303;28;20505;-76
2022/05/25 10:19:24;;;;;;;4.80;1.40;;;22.80;71.80;;;;;;5041428;28;20463;-76
2022/05/25 10:21:54;;;;;;;3.57;1.37;;;22.60;73.50;;;;;;5054161;28;20446;-75
2022/05/25 10:24:28;;;;;;;1.60;1.43;;;22.50;73.20;;;;;;5050084;28;20443;-74
2022/05/25 10:26:58;;;;;;;4.50;1.70;;;23.20;73.50;;;;;;5059105;28;20450;-76
2022/05/25 10:38:13;;;;;;;3.97;1.83;;;23.80;72.00;;;;;;5069232;28;20505;-76
2022/05/25 10:40:45;;;;;;;3.90;2.37;;;23.50;71.50;;;;;;5044176;28;20450;-74
2022/05/25 10:43:17;;;;;;;2.23;1.90;;;23.60;72.30;;;;;;5052399;28;20449;-74
2022/05/25 10:45:51;;;;;;;4.43;1.70;;;23.60;72.70;;;;;;5054310;28;20469;-74
2022/05/25 10:48:26;;;;;;;2.40;1.53;;;23.50;71.30;;;;;;5049674;28;20468;-73
2022/05/25 10:50:58;;;;;;;1.80;1.53;;;23.70;72.60;;;;;;5050352;28;20535;-73
2022/05/25 10:53:32;;;;;;;2.40;1.60;;;23.80;72.10;;;;;;5051801;28;20543;-73
2022/05/25 10:56:10;;;;;;;3.23;1.73;;;23.40;71.60;;;;;;5050225;28;20485;-73
2022/05/25 10:58:57;;;;;;;2.27;2.07;;;23.40;72.90;;;;;;5052675;28;20460;-75
2022/05/25 11:01:36;;;;;;;2.60;1.70;;;23.10;71.00;;;;;;5043962;28;20541;-73
2022/05/25 11:04:30;;;;;;;1.70;1.40;;;22.90;72.60;;;;;;5053607;28;20792;-74
2022/05/25 11:07:13;;;;;;;2.97;1.77;;;22.50;72.50;;;;;;5053949;28;20471;-74
2022/05/25 11:10:08;;;;;;;4.03;1.60;;;22.30;72.00;;;;;;5053369;28;20861;-74
2022/05/25 11:12:48;;;;;;;3.00;1.93;;;21.90;72.20;;;;;;5046779;28;20576;-74
2022/05/25 11:15:24;;;;;;;1.97;1.80;;;22.20;73.20;;;;;;5053830;28;20547;-75
2022/05/25 11:18:02;;;;;;;3.10;1.70;;;22.30;73.10;;;;;;5054573;28;20466;-75
2022/05/25 11:20:40;;;;;;;3.00;1.60;;;22.40;74.30;;;;;;5052777;28;20450;-74
2022/05/25 11:23:27;;;;;;;2.37;1.83;;;22.40;73.50;;;;;;5052155;28;20441;-74
2022/05/25 11:26:05;;;;;;;3.03;2.40;;;22.10;73.30;;;;;;5045098;28;20971;-75
2022/05/25 11:28:50;;;;;;;3.93;2.47;;;21.90;74.70;;;;;;5052321;28;20469;-74
2022/05/25 11:31:27;;;;;;;5.90;2.40;;;21.70;76.50;;;;;;5051277;28;20539;-74
2022/05/25 11:34:06;;;;;;;3.50;2.10;;;21.70;76.80;;;;;;5051824;28;20922;-75
2022/05/25 11:36:44;;;;;;;4.13;1.93;;;21.90;77.00;;;;;;5050940;28;20537;-73
2022/05/25 11:39:22;;;;;;;2.10;1.70;;;21.90;75.60;;;;;;5046993;28;20500;-73
2022/05/25 11:42:03;;;;;;;2.43;1.60;;;22.00;75.70;;;;;;5051401;28;20942;-73
2022/05/25 11:44:43;;;;;;;6.20;2.17;;;21.90;74.50;;;;;;5051270;28;20806;-73
2022/05/25 11:47:23;;;;;;;5.53;2.73;;;21.60;75.50;;;;;;5052724;28;20459;-74
2022/05/25 11:50:12;;;;;;;2.13;1.60;;;21.60;74.30;;;;;;5050714;28;20445;-73
2022/05/25 11:52:54;;;;;;;2.27;1.40;;;21.10;74.70;;;;;;5054176;28;20536;-75
2022/05/25 11:55:26;;;;;;;3.87;2.80;;;21.20;76.20;;;;;;5052810;28;20827;-73
2022/05/25 11:58:01;;;;;;;3.33;1.80;;;21.70;75.90;;;;;;5053852;28;20814;-74
2022/05/25 12:00:45;;;;;;;3.60;1.93;;;22.00;75.80;;;;;;5051327;28;20453;-74
2022/05/25 12:03:40;;;;;;;2.53;1.70;;;21.90;75.30;;;;;;5053358;28;20881;-74
2022/05/25 12:06:20;;;;;;;2.10;1.90;;;21.60;75.90;;;;;;5053309;28;20494;-74
2022/05/25 12:09:04;;;;;;;3.67;2.60;;;21.70;76.40;;;;;;5052449;28;20526;-73
2022/05/25 12:11:39;;;;;;;2.63;1.50;;;22.00;76.70;;;;;;5051397;28;20861;-72
2022/05/25 12:14:34;;;;;;;6.20;2.00;;;22.30;76.40;;;;;;5051286;28;20515;-73
2022/05/25 12:17:13;;;;;;;1.77;1.10;;;22.60;76.30;;;;;;5048322;28;20550;-75
2022/05/25 12:19:41;;;;;;;3.20;1.73;;;22.80;73.30;;;;;;5051642;28;20460;-73
2022/05/25 12:22:11;;;;;;;2.27;1.60;;;22.80;73.80;;;;;;5053583;28;20445;-74
2022/05/25 12:24:40;;;;;;;1.83;1.37;;;22.70;73.90;;;;;;5054234;28;20520;-75
2022/05/25 12:27:10;;;;;;;2.93;1.77;;;22.90;73.50;;;;;;5054527;28;20457;-75
2022/05/25 12:29:42;;;;;;;1.80;1.70;;;22.60;74.00;;;;;;5053504;28;20517;-72
2022/05/25 12:32:11;;;;;;;3.50;1.50;;;22.30;74.20;;;;;;5058483;28;20470;-74
2022/05/25 12:34:43;;;;;;;2.53;1.30;;;22.20;73.70;;;;;;5060449;28;20566;-73
2022/05/25 12:37:12;;;;;;;6.40;1.60;;;22.10;74.30;;;;;;5063933;28;20476;-72
2022/05/25 12:39:59;;;;;;;3.53;2.03;;;21.70;72.30;;;;;;5067777;28;20454;-72
2022/05/25 12:42:37;;;;;;;1.60;0.90;;;21.30;73.20;;;;;;5066860;28;20473;-73
2022/05/25 12:48:31;;;;;;;2.83;1.13;;;21.20;75.90;;;;;;5047628;28;20527;-72
2022/05/25 12:51:04;;;;;;;2.67;1.40;;;21.10;77.00;;;;;;5055709;28;20440;-75
2022/05/25 12:53:34;;;;;;;2.77;1.30;;;20.90;77.80;;;;;;5055311;28;20534;-74
2022/05/25 12:56:05;;;;;;;1.83;1.37;;;20.70;81.10;;;;;;5056056;28;20583;-74
2022/05/25 12:58:34;;;;;;;3.97;1.40;;;20.90;80.70;;;;;;5056333;28;20461;-74
2022/05/25 13:01:04;;;;;;;2.37;1.23;;;20.90;81.20;;;;;;5055547;28;20434;-73
2022/05/25 13:04:17;;;;;;;4.50;1.20;;;21.00;81.40;;;;;;5056088;28;20464;-73
2022/05/25 13:07:22;;;;;;;1.47;1.00;;;21.40;79.50;;;;;;5055838;28;20497;-74
2022/05/25 13:09:49;;;;;;;1.40;1.17;;;21.50;78.00;;;;;;5040173;28;20568;-72
2022/05/25 13:12:46;;;;;;;2.50;1.53;;;21.50;76.80;;;;;;5056759;28;20511;-72
2022/05/25 13:15:50;;;;;;;2.57;1.47;;;21.60;77.00;;;;;;5056092;28;20600;-75
2022/05/25 13:18:50;;;;;;;3.20;1.63;;;21.50;77.40;;;;;;5065182;28;20795;-73
2022/05/25 13:21:33;;;;;;;2.20;1.20;;;21.90;77.80;;;;;;5069529;28;20579;-73
2022/05/25 13:24:36;;;;;;;1.40;1.00;;;22.00;76.90;;;;;;5065119;28;20529;-75
2022/05/25 13:27:47;;;;;;;3.20;1.30;;;21.90;77.20;;;;;;5052706;28;20441;-73
2022/05/25 13:30:24;;;;;;;2.17;1.03;;;21.80;76.70;;;;;;5053707;28;20935;-75
2022/05/25 13:32:54;;;;;;;2.20;1.33;;;22.00;76.00;;;;;;5054873;28;21042;-74
2022/05/25 13:35:37;;;;;;;1.50;1.17;;;21.80;75.10;;;;;;5054027;28;20466;-73
2022/05/25 13:38:15;;;;;;;2.43;1.17;;;21.60;74.30;;;;;;5052362;28;20450;-73
2022/05/25 13:40:45;;;;;;;1.60;1.00;;;21.40;73.00;;;;;;5053731;28;20451;-73
2022/05/25 13:43:14;;;;;;;2.17;1.00;;;21.40;73.00;;;;;;5054466;28;20445;-75